createdAt,value
2023-01-09T00:02:05.999Z,38.35
2023-01-09T00:04:35.000Z,38.34
2023-01-09T00:07:04.551Z,37.99
2023-01-09T00:09:33.301Z,38.29
2023-01-09T00:12:02.568Z,38.22
2023-01-09T00:14:31.444Z,38.50
2023-01-09T00:17:00.027Z,38.84
2023-01-09T00:19:30.380Z,38.63
2023-01-09T00:21:58.998Z,38.50
2023-01-09T00:24:28.248Z,38.58
2023-01-09T00:26:56.736Z,38.99
2023-01-09T00:29:25.585Z,38.88
2023-01-09T00:31:54.056Z,38.56
2023-01-09T00:34:22.909Z,38.87
2023-01-09T00:36:55.210Z,38.97
2023-01-09T00:39:24.159Z,38.97
2023-01-09T00:41:58.636Z,39.54
2023-01-09T00:44:33.248Z,39.24
2023-01-09T00:47:07.883Z,38.79
2023-01-09T00:49:38.147Z,39.31
2023-01-09T00:52:12.088Z,39.05
2023-01-09T00:54:41.872Z,39.53
2023-01-09T00:57:13.958Z,39.88
2023-01-09T00:59:43.704Z,39.52
2023-01-09T01:02:12.483Z,39.78
2023-01-09T01:04:59.092Z,39.74
2023-01-09T01:07:41.416Z,40.45
2023-01-09T01:10:13.163Z,40.89
2023-01-09T01:12:42.195Z,40.53
2023-01-09T01:15:11.803Z,41.33
2023-01-09T01:17:41.789Z,41.46
2023-01-09T01:20:14.118Z,42.11
2023-01-09T01:22:44.072Z,42.36
2023-01-09T01:25:14.296Z,42.26
2023-01-09T01:27:42.815Z,42.50
2023-01-09T01:30:14.470Z,42.57
2023-01-09T01:32:43.110Z,42.71
2023-01-09T01:35:13.065Z,43.04
2023-01-09T01:37:43.365Z,42.48
2023-01-09T01:40:13.663Z,43.07
2023-01-09T01:42:47.679Z,43.33
2023-01-09T01:45:19.722Z,43.30
2023-01-09T01:47:55.700Z,43.56
2023-01-09T01:50:31.263Z,43.34
2023-01-09T01:53:08.705Z,43.64
2023-01-09T01:55:40.379Z,43.54
2023-01-09T01:58:11.313Z,43.93
2023-01-09T02:00:44.983Z,43.38
2023-01-09T02:03:17.081Z,44.17
2023-01-09T02:05:46.578Z,43.75
2023-01-09T02:08:16.740Z,43.63
2023-01-09T02:10:47.113Z,44.13
2023-01-09T02:13:15.949Z,44.03
2023-01-09T02:16:02.364Z,43.84
2023-01-09T02:18:41.768Z,44.73
2023-01-09T02:21:21.101Z,44.69
2023-01-09T02:24:07.701Z,44.83
2023-01-09T02:27:16.740Z,45.04
2023-01-09T02:30:20.459Z,45.00
2023-01-09T02:33:01.323Z,46.10
2023-01-09T02:36:03.164Z,46.55
2023-01-09T02:38:42.535Z,47.21
2023-01-09T02:41:18.700Z,47.42
2023-01-09T02:43:47.689Z,46.94
2023-01-09T02:46:22.624Z,47.69
2023-01-09T02:48:55.034Z,48.34
2023-01-09T02:51:31.264Z,48.00
2023-01-09T02:54:10.973Z,48.10
2023-01-09T02:56:57.115Z,48.28
2023-01-09T02:59:33.700Z,47.52
2023-01-09T03:02:16.318Z,47.59
2023-01-09T03:04:54.786Z,47.79
2023-01-09T03:07:28.399Z,48.16
2023-01-09T03:10:03.572Z,48.31
2023-01-09T03:12:34.230Z,48.48
2023-01-09T03:15:05.868Z,48.28
2023-01-09T03:17:39.701Z,49.36
2023-01-09T03:20:13.255Z,49.42
2023-01-09T03:22:46.523Z,49.34
2023-01-09T03:25:18.348Z,49.98
2023-01-09T03:27:46.875Z,50.05
2023-01-09T03:30:16.206Z,49.80
2023-01-09T03:32:46.035Z,50.15
2023-01-09T03:35:15.279Z,50.17
2023-01-09T03:37:43.846Z,50.82
2023-01-09T03:40:12.976Z,50.71
2023-01-09T03:42:41.481Z,50.89
2023-01-09T03:45:10.879Z,51.34
2023-01-09T03:47:39.498Z,51.40
2023-01-09T03:50:11.070Z,51.58
2023-01-09T03:52:39.676Z,51.57
2023-01-09T03:55:09.361Z,51.54
2023-01-09T03:57:37.991Z,51.58
2023-01-09T04:00:08.578Z,51.78
2023-01-09T04:02:43.290Z,51.60
2023-01-09T04:05:13.987Z,52.04
2023-01-09T04:07:42.505Z,52.05
2023-01-09T04:10:12.520Z,51.81
2023-01-09T04:12:41.024Z,51.02
2023-01-09T04:15:10.550Z,51.32
2023-01-09T04:17:39.035Z,50.93
2023-01-09T04:20:08.769Z,51.07
2023-01-09T04:22:38.814Z,51.42
2023-01-09T04:25:08.641Z,51.20
2023-01-09T04:27:37.117Z,50.90
2023-01-09T04:30:07.009Z,50.77
2023-01-09T04:32:35.579Z,51.38
2023-01-09T04:35:04.625Z,51.31
2023-01-09T04:37:33.283Z,51.51
2023-01-09T04:40:06.069Z,51.05
2023-01-09T04:42:34.671Z,50.64
2023-01-09T04:45:03.493Z,50.19
2023-01-09T04:47:32.739Z,49.93
2023-01-09T04:50:02.266Z,49.67
2023-01-09T04:52:30.974Z,49.89
2023-01-09T04:54:59.814Z,49.74
2023-01-09T04:57:29.735Z,49.24
2023-01-09T04:59:58.613Z,49.49
2023-01-09T05:02:27.180Z,49.71
2023-01-09T05:04:55.926Z,49.44
2023-01-09T05:07:24.582Z,49.45
2023-01-09T05:09:53.398Z,49.23
2023-01-09T05:12:21.814Z,49.49
2023-01-09T05:14:52.012Z,49.36
2023-01-09T05:17:20.504Z,49.00
2023-01-09T05:19:49.303Z,48.78
2023-01-09T05:22:17.885Z,48.57
2023-01-09T05:24:46.759Z,48.79
2023-01-09T05:27:15.326Z,48.56
2023-01-09T05:29:44.108Z,48.69
2023-01-09T05:32:14.157Z,48.55
2023-01-09T05:34:43.104Z,48.47
2023-01-09T05:37:11.670Z,48.16
2023-01-09T05:39:40.569Z,47.83
2023-01-09T05:42:09.115Z,48.21
2023-01-09T05:44:37.932Z,47.56
2023-01-09T05:47:06.516Z,48.17
2023-01-09T05:49:36.728Z,48.23
2023-01-09T05:52:05.626Z,48.43
2023-01-09T05:54:34.476Z,48.32
2023-01-09T05:57:02.973Z,48.59
2023-01-09T05:59:31.927Z,48.55
2023-01-09T06:02:00.498Z,48.70
2023-01-09T06:04:30.089Z,48.40
2023-01-09T06:07:00.016Z,48.53
2023-01-09T06:09:29.025Z,48.32
2023-01-09T06:11:57.770Z,48.53
2023-01-09T06:14:26.853Z,48.80
2023-01-09T06:16:55.412Z,48.57
2023-01-09T06:19:24.372Z,48.48
2023-01-09T06:21:53.772Z,48.32
2023-01-09T06:24:24.130Z,48.74
2023-01-09T06:26:52.725Z,48.40
2023-01-09T06:29:22.259Z,48.75
2023-01-09T06:31:50.815Z,48.85
2023-01-09T06:34:19.706Z,48.17
2023-01-09T06:36:48.340Z,48.58
2023-01-09T06:39:17.215Z,48.70
2023-01-09T06:41:48.520Z,48.47
2023-01-09T06:44:17.733Z,48.65
2023-01-09T06:46:46.263Z,48.54
2023-01-09T06:49:15.240Z,48.16
2023-01-09T06:51:43.873Z,48.47
2023-01-09T06:54:12.741Z,47.92
2023-01-09T06:56:41.220Z,48.28
2023-01-09T06:59:11.726Z,48.30
2023-01-09T07:01:40.888Z,47.75
2023-01-09T07:04:10.980Z,48.62
2023-01-09T07:06:40.131Z,48.57
2023-01-09T07:09:13.274Z,48.33
2023-01-09T07:11:41.976Z,48.01
2023-01-09T07:14:12.142Z,48.47
2023-01-09T07:16:40.737Z,48.16
2023-01-09T07:19:09.603Z,48.46
2023-01-09T07:21:38.106Z,48.62
2023-01-09T07:24:07.577Z,49.00
2023-01-09T07:26:36.170Z,49.37
2023-01-09T07:29:05.702Z,49.05
2023-01-09T07:31:35.914Z,49.49
2023-01-09T07:34:04.975Z,49.20
2023-01-09T07:36:33.466Z,49.27
2023-01-09T07:39:02.292Z,49.64
2023-01-09T07:41:30.915Z,49.60
2023-01-09T07:43:59.733Z,49.80
2023-01-09T07:46:28.919Z,49.78
2023-01-09T07:48:59.168Z,50.34
2023-01-09T07:51:27.652Z,50.06
2023-01-09T07:53:56.624Z,49.91
2023-01-09T07:56:25.241Z,50.03
2023-01-09T07:58:54.171Z,49.77
2023-01-09T08:01:22.870Z,50.43
2023-01-09T08:03:51.916Z,49.61
2023-01-09T08:06:21.876Z,49.98
2023-01-09T08:08:51.205Z,50.08
2023-01-09T08:11:19.883Z,50.35
2023-01-09T08:13:48.752Z,50.15
2023-01-09T08:16:17.553Z,50.13
2023-01-09T08:18:47.034Z,49.83
2023-01-09T08:21:15.693Z,49.83
2023-01-09T08:23:46.600Z,49.72
2023-01-09T08:26:15.097Z,49.03
2023-01-09T08:28:44.021Z,48.98
2023-01-09T08:31:13.060Z,49.37
2023-01-09T08:33:41.846Z,48.94
2023-01-09T08:36:11.186Z,48.80
2023-01-09T08:38:40.050Z,49.00
2023-01-09T08:41:23.844Z,48.13
2023-01-09T08:44:10.677Z,49.02
2023-01-09T08:46:56.994Z,48.33
2023-01-09T08:49:25.873Z,48.25
2023-01-09T08:51:55.567Z,47.83
2023-01-09T08:54:24.491Z,48.41
2023-01-09T08:56:54.527Z,47.62
2023-01-09T08:59:23.774Z,47.23
2023-01-09T09:01:53.165Z,47.76
2023-01-09T09:04:21.995Z,46.86
2023-01-09T09:06:50.649Z,47.53
2023-01-09T09:09:19.604Z,47.31
2023-01-09T09:11:48.137Z,46.04
2023-01-09T09:14:35.829Z,46.51
2023-01-09T09:17:04.498Z,46.15
2023-01-09T09:19:33.931Z,46.27
2023-01-09T09:22:02.578Z,45.43
2023-01-09T09:24:31.424Z,46.15
2023-01-09T09:27:00.013Z,46.16
2023-01-09T09:29:30.264Z,46.23
2023-01-09T09:32:00.794Z,46.55
2023-01-09T09:34:30.744Z,47.08
2023-01-09T09:36:59.452Z,46.76
2023-01-09T09:39:28.439Z,46.81
2023-01-09T09:42:39.805Z,46.72
2023-01-09T09:45:24.104Z,46.62
2023-01-09T09:48:03.657Z,47.00
2023-01-09T09:51:04.149Z,47.03
2023-01-09T09:53:39.825Z,47.81
2023-01-09T09:56:14.004Z,48.32
2023-01-09T09:58:45.607Z,47.88
2023-01-09T10:01:22.272Z,48.53
2023-01-09T10:03:54.580Z,48.24
2023-01-09T10:06:29.621Z,47.88
2023-01-09T10:09:07.342Z,47.68
2023-01-09T10:11:44.192Z,48.17
2023-01-09T10:14:23.587Z,47.98
2023-01-09T10:17:12.187Z,49.05
2023-01-09T10:20:09.596Z,48.83
2023-01-09T10:22:52.618Z,49.24
2023-01-09T10:25:29.322Z,49.96
2023-01-09T10:28:10.346Z,49.37
2023-01-09T10:30:43.505Z,49.92
2023-01-09T10:33:27.908Z,50.05
2023-01-09T10:36:23.657Z,49.83
2023-01-09T10:38:56.724Z,49.95
2023-01-09T10:41:31.219Z,50.20
2023-01-09T10:44:05.401Z,51.18
2023-01-09T10:46:40.758Z,51.01
2023-01-09T10:49:17.528Z,51.00
2023-01-09T10:51:49.490Z,51.05
2023-01-09T10:54:23.381Z,51.92
2023-01-09T10:56:56.543Z,52.14
2023-01-09T10:59:26.300Z,51.61
2023-01-09T11:01:55.189Z,51.78
2023-01-09T11:04:30.159Z,52.35
2023-01-09T11:07:03.601Z,51.72
2023-01-09T11:09:56.860Z,52.80
2023-01-09T11:12:27.234Z,51.88
2023-01-09T11:14:56.319Z,51.99
2023-01-09T11:17:28.333Z,52.46
2023-01-09T11:20:05.349Z,52.69
2023-01-09T11:22:45.038Z,52.81
2023-01-09T11:25:15.903Z,53.00
2023-01-09T11:27:45.062Z,53.47
2023-01-09T11:30:26.353Z,53.05
2023-01-09T11:32:57.146Z,52.65
2023-01-09T11:35:34.373Z,51.89
2023-01-09T11:38:08.260Z,51.97
2023-01-09T11:40:47.413Z,51.95
2023-01-09T11:43:21.018Z,52.46
2023-01-09T11:46:01.262Z,52.32
2023-01-09T11:48:39.167Z,51.90
2023-01-09T11:51:22.583Z,51.46
2023-01-09T11:54:08.935Z,51.75
2023-01-09T11:56:38.304Z,50.94
2023-01-09T11:59:12.365Z,51.19
2023-01-09T12:02:26.814Z,51.13
2023-01-09T12:04:57.758Z,50.78
2023-01-09T12:08:06.107Z,51.10
2023-01-09T12:10:49.546Z,51.80
2023-01-09T12:13:31.898Z,51.31
2023-01-09T12:16:12.686Z,50.34
2023-01-09T12:18:53.383Z,50.75
2023-01-09T12:21:33.872Z,50.27
2023-01-09T12:24:39.647Z,49.83
2023-01-09T12:27:23.460Z,50.31
2023-01-09T12:30:12.654Z,49.89
2023-01-09T12:32:59.482Z,49.70
2023-01-09T12:35:39.214Z,49.10
2023-01-09T12:38:25.922Z,49.15
2023-01-09T12:41:18.034Z,48.77
2023-01-09T12:43:59.760Z,48.80
2023-01-09T12:46:38.775Z,48.61
2023-01-09T12:49:23.410Z,48.40
2023-01-09T12:52:01.485Z,48.61
2023-01-09T12:54:38.877Z,48.40
2023-01-09T12:57:16.715Z,48.37
2023-01-09T12:59:50.075Z,48.20
2023-01-09T13:02:27.910Z,47.97
2023-01-09T13:05:00.056Z,48.15
2023-01-09T13:07:35.123Z,48.14
2023-01-09T13:10:09.089Z,48.04
2023-01-09T13:12:43.402Z,47.31
2023-01-09T13:15:27.545Z,47.50
2023-01-09T13:18:01.344Z,47.63
2023-01-09T13:20:37.532Z,47.21
2023-01-09T13:23:08.039Z,47.00
2023-01-09T13:25:44.783Z,47.22
2023-01-09T13:28:20.186Z,46.87
2023-01-09T13:31:13.926Z,46.57
2023-01-09T13:33:46.047Z,47.32
2023-01-09T13:36:25.204Z,47.00
2023-01-09T13:38:56.334Z,47.06
2023-01-09T13:41:45.529Z,47.00
2023-01-09T13:44:28.831Z,46.63
2023-01-09T13:47:00.198Z,47.05
2023-01-09T13:50:00.245Z,46.77
2023-01-09T13:52:36.857Z,47.26
2023-01-09T13:55:25.186Z,47.73
2023-01-09T13:58:22.710Z,47.77
2023-01-09T14:00:56.893Z,47.69
2023-01-09T14:03:29.495Z,48.11
2023-01-09T14:06:17.752Z,48.35
2023-01-09T14:08:49.501Z,48.47
2023-01-09T14:11:29.160Z,48.28
2023-01-09T14:14:05.619Z,49.05
2023-01-09T14:16:39.343Z,49.23
2023-01-09T14:19:23.361Z,49.16
2023-01-09T14:21:55.397Z,49.22
2023-01-09T14:24:28.204Z,48.91
2023-01-09T14:26:59.034Z,48.58
2023-01-09T14:29:45.192Z,48.17
2023-01-09T14:32:46.835Z,48.40
2023-01-09T14:35:20.992Z,48.50
2023-01-09T14:38:12.281Z,48.30
2023-01-09T14:40:48.924Z,47.95
2023-01-09T14:43:27.039Z,47.94
2023-01-09T14:46:04.798Z,48.00
2023-01-09T14:48:37.015Z,47.98
2023-01-09T14:51:08.979Z,47.82
2023-01-09T14:53:40.177Z,48.03
2023-01-09T14:56:26.545Z,47.94
2023-01-09T14:59:05.531Z,48.06
2023-01-09T15:01:37.135Z,48.08
2023-01-09T15:04:22.022Z,48.27
2023-01-09T15:06:50.739Z,48.66
2023-01-09T15:09:26.104Z,48.52
2023-01-09T15:11:56.408Z,48.38
2023-01-09T15:14:32.706Z,48.43
2023-01-09T15:17:03.242Z,48.49
2023-01-09T15:19:34.507Z,48.35
2023-01-09T15:22:05.780Z,48.81
2023-01-09T15:24:35.784Z,48.78
2023-01-09T15:27:11.470Z,49.17
2023-01-09T15:29:40.492Z,48.97
2023-01-09T15:32:16.310Z,48.88
2023-01-09T15:34:47.562Z,48.99
2023-01-09T15:37:27.200Z,48.90
2023-01-09T15:39:56.895Z,48.76
2023-01-09T15:42:45.750Z,48.91
2023-01-09T15:45:23.133Z,48.49
2023-01-09T15:47:51.901Z,48.23
2023-01-09T15:50:28.773Z,47.98
2023-01-09T15:52:58.121Z,47.95
2023-01-09T15:55:35.748Z,48.29
2023-01-09T15:58:07.235Z,47.87
2023-01-09T16:00:42.010Z,48.27
2023-01-09T16:03:22.712Z,48.25
2023-01-09T16:05:58.014Z,47.68
2023-01-09T16:08:30.477Z,47.31
2023-01-09T16:11:03.253Z,46.92
2023-01-09T16:13:36.059Z,47.62
2023-01-09T16:16:05.775Z,47.32
2023-01-09T16:18:38.504Z,47.54
2023-01-09T16:21:31.977Z,47.20
2023-01-09T16:24:03.251Z,47.55
2023-01-09T16:26:32.815Z,47.82
2023-01-09T16:29:30.125Z,48.20
2023-01-09T16:32:02.617Z,47.81
2023-01-09T16:34:31.904Z,47.82
2023-01-09T16:37:03.397Z,47.87
2023-01-09T16:39:32.073Z,48.25
2023-01-09T16:42:18.747Z,47.99
2023-01-09T16:44:47.379Z,48.13
2023-01-09T16:47:16.312Z,47.52
2023-01-09T16:49:45.014Z,48.03
2023-01-09T16:52:18.450Z,47.68
2023-01-09T16:54:47.826Z,47.87
2023-01-09T16:57:19.819Z,47.96
2023-01-09T16:59:48.728Z,48.04
2023-01-09T17:02:19.833Z,48.27
2023-01-09T17:04:48.464Z,49.17
2023-01-09T17:07:20.352Z,49.12
2023-01-09T17:09:49.049Z,49.14
2023-01-09T17:12:20.103Z,49.63
2023-01-09T17:14:49.690Z,50.20
2023-01-09T17:17:19.354Z,50.12
2023-01-09T17:19:47.931Z,50.62
2023-01-09T17:22:18.218Z,50.85
2023-01-09T17:25:04.095Z,50.92
2023-01-09T17:28:04.219Z,51.00
2023-01-09T17:30:32.769Z,51.81
2023-01-09T17:33:01.659Z,52.07
2023-01-09T17:35:30.586Z,52.05
2023-01-09T17:38:00.876Z,52.61
2023-01-09T17:40:30.281Z,52.55
2023-01-09T17:42:59.176Z,52.55
2023-01-09T17:45:28.146Z,52.99
2023-01-09T17:47:57.102Z,52.91
2023-01-09T17:50:28.404Z,53.02
2023-01-09T17:52:57.315Z,53.65
2023-01-09T17:55:27.235Z,53.33
2023-01-09T17:57:56.116Z,54.21
2023-01-09T18:00:27.707Z,53.88
2023-01-09T18:02:57.286Z,54.53
2023-01-09T18:05:27.673Z,54.47
2023-01-09T18:07:56.769Z,55.59
2023-01-09T18:10:28.388Z,54.85
2023-01-09T18:12:58.031Z,55.28
2023-01-09T18:15:27.066Z,55.93
2023-01-09T18:17:56.206Z,56.38
2023-01-09T18:20:25.571Z,56.01
2023-01-09T18:22:54.808Z,56.01
2023-01-09T18:25:23.447Z,55.91
2023-01-09T18:27:53.840Z,56.05
2023-01-09T18:30:22.414Z,56.23
2023-01-09T18:32:51.367Z,56.75
2023-01-09T18:35:20.041Z,57.63
2023-01-09T18:37:49.710Z,57.85
2023-01-09T18:40:18.578Z,59.35
2023-01-09T18:42:48.586Z,59.31
2023-01-09T18:45:18.874Z,59.10
2023-01-09T18:47:47.878Z,59.47
2023-01-09T18:50:16.629Z,59.96
2023-01-09T18:52:45.483Z,60.18
2023-01-09T18:55:14.079Z,60.66
2023-01-09T18:57:43.042Z,60.81
2023-01-09T19:00:13.035Z,60.96
2023-01-09T19:02:43.419Z,60.86
2023-01-09T19:05:12.593Z,61.08
2023-01-09T19:07:41.410Z,61.18
2023-01-09T19:10:11.556Z,61.86
2023-01-09T19:12:40.403Z,61.96
2023-01-09T19:15:11.573Z,62.12
2023-01-09T19:17:40.921Z,62.25
2023-01-09T19:20:12.832Z,61.78
2023-01-09T19:22:41.743Z,61.29
2023-01-09T19:25:12.468Z,61.10
2023-01-09T19:27:41.499Z,60.50
2023-01-09T19:30:12.327Z,61.25
2023-01-09T19:32:41.281Z,61.29
2023-01-09T19:35:11.421Z,61.50
2023-01-09T19:37:40.280Z,61.27
2023-01-09T19:40:10.221Z,61.52
2023-01-09T19:42:39.305Z,62.50
2023-01-09T19:45:09.231Z,62.29
2023-01-09T19:47:38.894Z,61.17
2023-01-09T19:50:08.462Z,61.44
2023-01-09T19:52:38.666Z,61.10
2023-01-09T19:55:07.741Z,61.35
2023-01-09T19:57:37.270Z,61.64
2023-01-09T20:00:06.890Z,61.16
2023-01-09T20:02:41.738Z,61.00
2023-01-09T20:05:11.380Z,61.12
2023-01-09T20:07:41.912Z,60.67
2023-01-09T20:10:11.501Z,60.71
2023-01-09T20:12:40.419Z,61.01
2023-01-09T20:15:14.764Z,60.47
2023-01-09T20:17:43.785Z,60.91
2023-01-09T20:20:12.884Z,60.42
2023-01-09T20:22:43.087Z,60.56
2023-01-09T20:25:11.739Z,59.96
2023-01-09T20:27:40.629Z,59.62
2023-01-09T20:30:10.471Z,59.81
2023-01-09T20:32:39.436Z,59.62
2023-01-09T20:35:08.771Z,59.54
2023-01-09T20:37:40.093Z,59.37
2023-01-09T20:40:11.576Z,59.24
2023-01-09T20:42:40.941Z,59.19
2023-01-09T20:45:10.732Z,58.96
2023-01-09T20:47:39.724Z,58.61
2023-01-09T20:50:09.161Z,58.64
2023-01-09T20:52:38.123Z,58.22
2023-01-09T20:55:07.187Z,58.04
2023-01-09T20:57:37.579Z,57.89
2023-01-09T21:00:08.175Z,58.05
2023-01-09T21:02:37.240Z,57.59
2023-01-09T21:05:06.583Z,57.42
2023-01-09T21:07:35.737Z,57.00
2023-01-09T21:10:04.632Z,56.63
2023-01-09T21:12:35.939Z,57.12
2023-01-09T21:15:09.294Z,56.44
2023-01-09T21:17:40.583Z,56.78
2023-01-09T21:20:13.198Z,56.68
2023-01-09T21:22:42.410Z,56.73
2023-01-09T21:25:11.311Z,57.08
2023-01-09T21:27:42.791Z,56.68
2023-01-09T21:30:13.463Z,56.92
2023-01-09T21:32:42.444Z,56.29
2023-01-09T21:35:11.238Z,56.04
2023-01-09T21:37:40.234Z,55.76
2023-01-09T21:40:13.231Z,55.76
2023-01-09T21:42:59.815Z,55.65
2023-01-09T21:45:47.339Z,55.11
2023-01-09T21:48:16.381Z,54.83
2023-01-09T21:50:45.005Z,54.74
2023-01-09T21:53:13.863Z,54.72
2023-01-09T21:55:42.584Z,54.55
2023-01-09T21:58:11.608Z,54.75
2023-01-09T22:00:41.562Z,55.28
2023-01-09T22:03:17.400Z,55.43
2023-01-09T22:05:46.132Z,55.35
2023-01-09T22:08:14.941Z,54.39
2023-01-09T22:10:43.509Z,54.54
2023-01-09T22:13:17.519Z,54.21
2023-01-09T22:15:48.221Z,54.49
2023-01-09T22:18:17.204Z,54.41
2023-01-09T22:20:46.785Z,54.08
2023-01-09T22:23:15.933Z,54.20
2023-01-09T22:25:44.661Z,53.85
2023-01-09T22:28:13.459Z,53.42
2023-01-09T22:30:42.933Z,53.92
2023-01-09T22:33:14.165Z,53.77
2023-01-09T22:35:43.912Z,53.69
2023-01-09T22:38:13.438Z,53.66
2023-01-09T22:40:42.628Z,53.93
2023-01-09T22:43:16.403Z,53.39
2023-01-09T22:45:46.502Z,53.75
2023-01-09T22:48:17.689Z,53.77
2023-01-09T22:50:46.242Z,53.87
2023-01-09T22:53:17.116Z,54.03
2023-01-09T22:55:46.144Z,54.26
2023-01-09T22:58:14.995Z,54.00
2023-01-09T23:00:43.524Z,54.41
2023-01-09T23:03:12.498Z,54.29
2023-01-09T23:05:42.343Z,53.86
2023-01-09T23:08:11.304Z,53.77
2023-01-09T23:10:39.880Z,54.47
2023-01-09T23:13:09.120Z,54.04
2023-01-09T23:15:37.620Z,54.54
2023-01-09T23:18:07.984Z,54.34
2023-01-09T23:20:36.519Z,54.63
2023-01-09T23:23:07.111Z,54.29
2023-01-09T23:25:35.910Z,54.92
2023-01-09T23:28:04.836Z,54.55
2023-01-09T23:30:33.490Z,54.56
2023-01-09T23:33:02.306Z,54.76
2023-01-09T23:35:30.903Z,54.50
2023-01-09T23:37:59.777Z,54.78
2023-01-09T23:40:29.741Z,54.78
2023-01-09T23:43:09.599Z,54.37
2023-01-09T23:45:39.587Z,55.08
2023-01-09T23:48:10.448Z,55.32
2023-01-09T23:50:39.556Z,54.83
2023-01-09T23:53:08.423Z,54.91
2023-01-09T23:55:38.368Z,55.19
2023-01-09T23:58:07.611Z,55.06
